Time;durP1;ratioP1;P1;durP2;ratioP2;P2;SDS_P1;SDS_P2;PMS_P1;PMS_P2;Temp;Humidity;BMP_temperature;BMP_pressure;BME280_temperature;BME280_humidity;BME280_pressure;Samples;Min_cycle;Max_cycle;Signal;HPM_P1;HPM_P2
2023/07/11 00:01:42;;;;;;;10.65;4.70;;;;;;;19.89;78.47;100967.06;4961490;28;20070;-80
2023/07/11 00:04:10;;;;;;;12.13;5.45;;;;;;;20.03;78.33;100965.19;4963786;28;20134;-79
2023/07/11 00:06:37;;;;;;;14.88;4.93;;;;;;;19.98;77.87;100956.19;4963401;29;20112;-81
2023/07/11 00:09:07;;;;;;;8.32;4.50;;;;;;;19.93;78.13;100967.47;4964301;29;20115;-78
2023/07/11 00:11:33;;;;;;;7.93;4.60;;;;;;;19.78;78.70;100970.38;4963407;29;20134;-79
2023/07/11 00:14:00;;;;;;;14.80;5.15;;;;;;;19.83;79.14;100972.41;4963676;29;20137;-78
2023/07/11 00:16:27;;;;;;;9.77;5.20;;;;;;;19.73;79.04;100966.72;4962345;29;20127;-77
2023/07/11 00:18:56;;;;;;;7.97;4.68;;;;;;;19.79;79.16;100972.00;4965189;28;20130;-78
2023/07/11 00:21:22;;;;;;;8.32;4.70;;;;;;;19.79;78.96;100971.19;4958562;29;20103;-78
2023/07/11 00:23:49;;;;;;;8.55;4.80;;;;;;;19.72;79.16;100965.06;4963697;29;20051;-78
2023/07/11 00:26:17;;;;;;;7.88;4.85;;;;;;;19.75;79.40;100976.09;4960061;29;20463;-79
2023/07/11 00:28:44;;;;;;;8.38;4.65;;;;;;;19.77;79.90;100978.56;4960777;29;20055;-78
2023/07/11 00:31:10;;;;;;;9.77;5.00;;;;;;;19.76;79.75;100968.94;4960070;29;20078;-78
2023/07/11 00:33:37;;;;;;;7.70;4.70;;;;;;;19.74;79.97;100963.03;4958846;28;20051;-78
2023/07/11 00:36:04;;;;;;;16.63;5.72;;;;;;;19.68;80.27;100966.50;4957475;29;20063;-77
2023/07/11 00:40:58;;;;;;;9.35;4.97;;;;;;;19.61;80.80;100963.06;4969279;28;20052;-78
2023/07/11 00:43:26;;;;;;;10.60;5.43;;;;;;;19.47;81.42;100963.03;4970583;28;20574;-79
2023/07/11 00:46:04;;;;;;;7.85;4.90;;;;;;;19.41;81.95;100953.25;4966028;28;20061;-78
2023/07/11 00:48:34;;;;;;;11.90;4.82;;;;;;;19.38;82.43;100963.44;4953088;29;20066;-79
2023/07/11 00:51:01;;;;;;;9.27;4.93;;;;;;;19.33;82.77;100958.78;4963189;28;20058;-78
2023/07/11 00:53:30;;;;;;;11.65;5.30;;;;;;;19.36;82.87;100966.34;4956658;29;20065;-77
2023/07/11 00:56:01;;;;;;;10.55;5.32;;;;;;;19.38;83.35;100964.25;4961179;28;20445;-77
2023/07/11 00:58:30;;;;;;;9.95;5.45;;;;;;;19.37;83.51;100962.66;4955677;29;20046;-77
2023/07/11 01:00:57;;;;;;;8.70;5.57;;;;;;;19.36;83.97;100962.88;4961342;28;20043;-79
2023/07/11 01:03:24;;;;;;;9.27;5.03;;;;;;;19.33;84.34;100966.75;4961219;28;20058;-78
2023/07/11 01:05:55;;;;;;;9.57;5.22;;;;;;;19.25;84.65;100953.69;4952117;29;20508;-77
2023/07/11 01:08:22;;;;;;;9.55;5.10;;;;;;;19.18;85.30;100951.03;4951100;29;20047;-77
2023/07/11 01:10:48;;;;;;;10.05;5.07;;;;;;;19.19;85.64;100952.66;4962746;28;20150;-78
2023/07/11 01:13:15;;;;;;;9.77;5.10;;;;;;;19.18;85.83;100953.69;4956348;28;20522;-76
2023/07/11 01:15:43;;;;;;;10.02;5.60;;;;;;;19.11;86.03;100941.44;4962009;28;20047;-78
2023/07/11 01:18:10;;;;;;;9.68;5.70;;;;;;;19.07;86.05;100951.63;4954243;28;20051;-76
2023/07/11 01:20:37;;;;;;;7.50;4.93;;;;;;;19.06;86.28;100938.56;4964323;28;20048;-79
2023/07/11 01:23:05;;;;;;;7.93;5.13;;;;;;;19.06;86.52;100935.91;4958931;29;20078;-79
2023/07/11 01:25:33;;;;;;;11.07;5.95;;;;;;;19.08;86.70;100947.16;4958799;28;20147;-77
2023/07/11 01:28:00;;;;;;;6.68;5.20;;;;;;;19.00;86.94;100944.69;4955348;28;20142;-76
2023/07/11 01:30:27;;;;;;;11.70;5.68;;;;;;;18.99;87.11;100943.06;4963584;28;20058;-77
2023/07/11 01:32:53;;;;;;;10.63;5.38;;;;;;;19.01;87.33;100941.84;4965038;28;20118;-77
2023/07/11 01:35:20;;;;;;;10.80;5.53;;;;;;;18.97;87.38;100939.78;4952491;29;20141;-77
2023/07/11 01:37:47;;;;;;;7.43;5.13;;;;;;;18.97;87.36;100929.19;4958545;28;20106;-78
2023/07/11 01:40:15;;;;;;;12.98;6.07;;;;;;;18.87;87.71;100930.44;4957485;28;20114;-77
2023/07/11 01:42:43;;;;;;;8.98;5.57;;;;;;;18.84;87.95;100928.19;4957968;29;20488;-77
2023/07/11 01:45:11;;;;;;;9.07;5.38;;;;;;;18.87;87.88;100924.31;4962390;28;20051;-77
2023/07/11 01:47:50;;;;;;;9.40;5.40;;;;;;;18.78;88.28;100933.47;4954971;29;20126;-77
2023/07/11 01:50:16;;;;;;;11.30;5.75;;;;;;;18.72;88.39;100924.50;4955310;29;20090;-78
2023/07/11 01:52:43;;;;;;;10.75;5.57;;;;;;;18.69;88.64;100932.84;4957384;28;20522;-77
2023/07/11 01:55:11;;;;;;;10.25;5.28;;;;;;;18.69;88.85;100927.53;4956447;28;20079;-78
2023/07/11 01:57:38;;;;;;;7.80;5.50;;;;;;;18.63;89.30;100930.19;4955945;28;20534;-77
2023/07/11 02:00:08;;;;;;;7.70;5.47;;;;;;;18.56;89.48;100930.13;4956113;28;20567;-78
2023/07/11 02:02:35;;;;;;;8.32;5.40;;;;;;;18.39;90.29;100928.88;4951731;29;20107;-79
2023/07/11 02:05:01;;;;;;;8.38;5.55;;;;;;;18.26;90.89;100927.00;4956452;29;20503;-78
2023/07/11 02:07:28;;;;;;;10.30;5.88;;;;;;;18.33;90.95;100919.09;4956146;29;20111;-78
2023/07/11 02:09:55;;;;;;;10.43;5.82;;;;;;;18.39;90.93;100918.28;4955873;29;20055;-78
2023/07/11 02:12:21;;;;;;;9.98;5.57;;;;;;;18.29;90.95;100921.31;4955931;29;20051;-78
2023/07/11 02:14:50;;;;;;;9.13;5.90;;;;;;;18.22;91.37;100921.28;4956309;29;20058;-78
2023/07/11 02:17:16;;;;;;;9.05;5.93;;;;;;;18.07;92.01;100910.03;4955430;29;20521;-77
2023/07/11 02:19:44;;;;;;;9.32;6.13;;;;;;;18.18;92.11;100914.75;4958240;29;20111;-78
2023/07/11 02:22:11;;;;;;;9.50;5.60;;;;;;;18.12;92.27;100920.03;4954754;29;20098;-77
2023/07/11 02:24:39;;;;;;;8.45;5.68;;;;;;;18.04;92.56;100913.06;4956086;28;20047;-78
2023/07/11 02:27:06;;;;;;;11.68;6.15;;;;;;;18.03;92.71;100916.72;4957817;29;20133;-78
2023/07/11 02:29:33;;;;;;;10.45;6.15;;;;;;;17.96;93.00;100921.16;4956018;29;20138;-77
2023/07/11 02:32:01;;;;;;;8.90;5.90;;;;;;;18.01;93.00;100915.28;4953444;29;20039;-77
2023/07/11 02:34:27;;;;;;;10.82;6.32;;;;;;;17.91;93.32;100915.69;4953951;29;20412;-77
2023/07/11 02:36:54;;;;;;;8.13;5.57;;;;;;;17.85;93.61;100908.53;4953482;28;20523;-77
2023/07/11 02:39:20;;;;;;;9.35;5.65;;;;;;;17.80;93.98;100903.00;4946590;29;20055;-77
2023/07/11 02:41:47;;;;;;;10.70;5.88;;;;;;;17.79;94.02;100893.41;4953850;29;20079;-78
2023/07/11 02:44:14;;;;;;;11.25;6.18;;;;;;;17.78;94.23;100899.72;4955567;29;20082;-79
2023/07/11 02:46:40;;;;;;;9.80;6.00;;;;;;;17.74;94.47;100895.84;4959403;29;20054;-78
2023/07/11 02:49:08;;;;;;;9.13;6.32;;;;;;;17.74;94.53;100898.47;4959101;29;20162;-78
2023/07/11 02:51:35;;;;;;;8.32;6.05;;;;;;;17.73;94.75;100904.78;4959344;29;20094;-79
2023/07/11 02:54:03;;;;;;;8.48;6.00;;;;;;;17.75;94.72;100897.47;4965663;29;20134;-79
2023/07/11 02:56:29;;;;;;;7.75;5.90;;;;;;;17.70;94.74;100898.06;4964907;29;20047;-79
2023/07/11 02:59:00;;;;;;;11.93;5.80;;;;;;;17.73;94.60;100896.84;4972491;28;20089;-79
2023/07/11 03:01:27;;;;;;;10.98;6.03;;;;;;;17.65;94.74;100894.34;4963361;29;20082;-80
2023/07/11 03:03:54;;;;;;;9.48;5.75;;;;;;;17.67;94.73;100894.97;4965777;29;20085;-79
2023/07/11 03:06:22;;;;;;;11.27;6.07;;;;;;;17.59;94.90;100894.09;4951721;29;20053;-77
2023/07/11 03:08:48;;;;;;;8.60;5.63;;;;;;;17.65;95.06;100886.38;4955985;28;20054;-78
2023/07/11 03:11:15;;;;;;;7.78;6.00;;;;;;;17.71;94.89;100885.66;4955375;29;20149;-78
2023/07/11 03:13:42;;;;;;;9.88;5.20;;;;;;;17.79;94.26;100891.59;4958075;29;20043;-78
2023/07/11 03:16:09;;;;;;;13.23;6.05;;;;;;;17.80;93.71;100879.19;4959857;28;20138;-79
2023/07/11 03:18:36;;;;;;;9.27;5.75;;;;;;;17.82;93.66;100883.25;4962778;28;20074;-77
2023/07/11 03:21:03;;;;;;;8.38;5.85;;;;;;;17.82;93.57;100880.63;4965097;28;20050;-78
2023/07/11 03:23:31;;;;;;;10.43;5.57;;;;;;;17.81;93.48;100880.81;4956277;29;20130;-78
2023/07/11 03:25:58;;;;;;;10.57;5.53;;;;;;;17.78;93.16;100883.84;4956083;29;20489;-77
2023/07/11 03:28:25;;;;;;;8.88;5.38;;;;;;;17.71;93.14;100880.34;4956932;28;20141;-80
2023/07/11 03:30:52;;;;;;;8.80;5.30;;;;;;;17.75;93.30;100873.66;4960171;29;20047;-78
2023/07/11 03:33:19;;;;;;;8.60;5.65;;;;;;;17.80;92.87;100881.81;4967667;28;20046;-79
2023/07/11 03:35:49;;;;;;;9.30;5.00;;;;;;;17.77;93.06;100876.91;4965642;28;20483;-77
2023/07/11 03:38:16;;;;;;;14.02;5.80;;;;;;;17.78;93.33;100881.19;4956731;28;20054;-77
2023/07/11 03:40:44;;;;;;;9.45;5.32;;;;;;;17.71;93.37;100880.34;4958390;29;20134;-78
2023/07/11 03:43:10;;;;;;;7.80;5.10;;;;;;;17.74;93.63;100885.25;4968338;28;20442;-78
2023/07/11 03:45:41;;;;;;;9.70;5.85;;;;;;;17.71;93.42;100875.06;4960074;28;20571;-78
2023/07/11 03:48:07;;;;;;;8.73;5.85;;;;;;;17.67;93.71;100871.16;4960579;28;20047;-78
2023/07/11 03:50:34;;;;;;;10.77;5.45;;;;;;;17.55;93.82;100870.88;4957863;29;20051;-78
2023/07/11 03:53:01;;;;;;;8.50;5.95;;;;;;;17.53;93.91;100863.13;4957853;29;20074;-79
2023/07/11 03:55:27;;;;;;;8.82;5.85;;;;;;;17.58;93.90;100860.72;4956950;28;20126;-78
2023/07/11 03:57:55;;;;;;;10.50;5.75;;;;;;;17.65;93.68;100859.94;4957153;28;20586;-79
2023/07/11 04:00:22;;;;;;;8.90;5.30;;;;;;;17.66;93.70;100862.41;4955969;28;20071;-78
2023/07/11 04:02:48;;;;;;;9.27;5.50;;;;;;;17.71;93.46;100860.00;4957646;28;20043;-80
2023/07/11 04:05:16;;;;;;;8.98;5.68;;;;;;;17.67;93.51;100863.22;4962058;28;20169;-79
2023/07/11 04:07:42;;;;;;;12.98;6.13;;;;;;;18.02;92.97;100870.06;4965726;28;20102;-79
2023/07/11 04:10:12;;;;;;;8.77;5.22;;;;;;;18.57;90.69;100861.03;4960312;29;20134;-78
2023/07/11 04:12:38;;;;;;;11.07;5.55;;;;;;;18.85;88.51;100842.31;4961296;29;20048;-79
2023/07/11 04:15:08;;;;;;;8.45;5.07;;;;;;;19.43;86.84;100855.66;4961624;28;20115;-79
2023/07/11 04:17:34;;;;;;;7.88;5.03;;;;;;;19.79;84.54;100846.41;4954621;28;20085;-78
2023/07/11 04:20:01;;;;;;;7.97;5.25;;;;;;;19.87;83.40;100838.97;4958591;29;20075;-79
2023/07/11 04:22:29;;;;;;;9.43;5.50;;;;;;;20.23;81.78;100837.56;4961367;29;20045;-79
2023/07/11 04:24:55;;;;;;;11.25;6.22;;;;;;;20.16;82.14;100842.91;4957789;28;20051;-76
2023/07/11 04:27:22;;;;;;;9.18;6.07;;;;;;;20.01;82.57;100841.56;4964446;28;20476;-78
2023/07/11 04:29:49;;;;;;;10.75;5.47;;;;;;;20.08;81.85;100840.50;4959351;29;20112;-78
2023/07/11 04:32:17;;;;;;;10.05;5.38;;;;;;;20.38;81.41;100839.94;4957907;28;20147;-79
2023/07/11 04:34:43;;;;;;;10.38;5.45;;;;;;;19.91;82.21;100830.59;4958562;29;20134;-78
2023/07/11 04:37:10;;;;;;;7.78;5.20;;;;;;;20.16;82.86;100842.09;4958157;28;20057;-78
2023/07/11 04:39:39;;;;;;;6.90;5.10;;;;;;;19.46;84.27;100834.00;4957169;29;20154;-79
2023/07/11 04:42:09;;;;;;;9.65;5.40;;;;;;;19.47;85.28;100838.28;4956993;28;20142;-78
2023/07/11 04:44:36;;;;;;;7.55;5.43;;;;;;;18.99;86.88;100836.97;4956744;28;20130;-79
2023/07/11 04:47:02;;;;;;;7.60;5.35;;;;;;;19.03;87.64;100835.53;4957134;28;20137;-78
2023/07/11 04:49:31;;;;;;;7.22;5.47;;;;;;;19.28;87.19;100825.09;4959845;28;20137;-79
2023/07/11 04:51:58;;;;;;;9.38;5.50;;;;;;;19.44;86.55;100833.41;4959254;28;20137;-78
2023/07/11 04:54:24;;;;;;;10.93;5.55;;;;;;;19.19;87.50;100825.31;4958152;29;20043;-78
2023/07/11 04:56:56;;;;;;;12.82;6.30;;;;;;;19.15;87.80;100824.09;4968109;28;20134;-78
2023/07/11 04:59:25;;;;;;;7.18;5.63;;;;;;;19.53;87.25;100824.22;4959554;29;20138;-78
2023/07/11 05:01:51;;;;;;;11.55;5.43;;;;;;;19.61;86.97;100822.38;4960128;28;20147;-77
2023/07/11 05:04:18;;;;;;;8.88;5.43;;;;;;;19.70;86.45;100826.41;4956613;28;20089;-78
2023/07/11 05:06:48;;;;;;;10.02;5.85;;;;;;;20.11;84.90;100813.53;4960344;28;20083;-78
2023/07/11 05:09:15;;;;;;;9.45;5.80;;;;;;;19.95;84.95;100821.97;4959175;29;20074;-78
2023/07/11 05:11:45;;;;;;;8.82;5.85;;;;;;;20.26;84.62;100826.50;4960321;28;20054;-79
2023/07/11 05:14:12;;;;;;;10.70;5.72;;;;;;;20.46;83.45;100823.72;4959559;28;20102;-78
2023/07/11 05:16:38;;;;;;;10.35;5.85;;;;;;;20.45;83.13;100819.44;4959477;28;20133;-78
2023/07/11 05:19:05;;;;;;;9.10;5.63;;;;;;;20.43;83.51;100810.88;4958122;28;20115;-78
2023/07/11 05:21:31;;;;;;;10.88;5.50;;;;;;;20.48;83.10;100811.03;4967840;28;20138;-79
2023/07/11 05:24:01;;;;;;;9.35;5.57;;;;;;;20.70;82.24;100804.31;4957378;28;20073;-78
2023/07/11 05:26:28;;;;;;;10.05;5.18;;;;;;;21.04;81.51;100807.47;4958149;29;20070;-79
2023/07/11 05:28:55;;;;;;;8.63;5.22;;;;;;;22.12;78.45;100811.09;4957950;28;20130;-78
2023/07/11 05:31:22;;;;;;;8.80;5.28;;;;;;;22.38;75.82;100801.06;4959778;28;20488;-78
2023/07/11 05:33:49;;;;;;;6.35;4.65;;;;;;;23.84;72.00;100794.63;4960348;28;20070;-79
2023/07/11 05:36:33;;;;;;;9.80;4.80;;;;;;;24.71;67.90;100784.31;4961252;28;20058;-79
2023/07/11 05:39:04;;;;;;;10.93;4.95;;;;;;;25.05;67.10;100784.28;4962702;28;20122;-78
2023/07/11 05:41:31;;;;;;;7.82;4.65;;;;;;;25.40;65.39;100782.06;4959078;29;20051;-79
2023/07/11 05:43:58;;;;;;;8.27;4.63;;;;;;;25.04;65.93;100783.50;4959907;28;20126;-79
2023/07/11 05:46:26;;;;;;;12.70;5.03;;;;;;;25.02;65.25;100785.59;4956601;29;20055;-77
2023/07/11 05:48:54;;;;;;;8.95;4.60;;;;;;;25.40;65.72;100782.06;4956576;28;20055;-78
2023/07/11 05:51:21;;;;;;;8.43;4.82;;;;;;;26.42;63.00;100789.25;4956003;28;20072;-78
2023/07/11 05:53:49;;;;;;;8.30;4.70;;;;;;;26.04;62.47;100787.53;4957368;29;20051;-78
2023/07/11 05:56:19;;;;;;;7.38;4.43;;;;;;;26.99;60.95;100771.63;4958833;29;20055;-79
2023/07/11 05:58:48;;;;;;;7.35;4.97;;;;;;;25.54;62.57;100776.28;4964574;28;20051;-77
2023/07/11 06:01:17;;;;;;;9.15;4.30;;;;;;;26.02;61.91;100776.28;4960268;28;20048;-78
2023/07/11 06:03:49;;;;;;;5.88;4.22;;;;;;;25.16;63.46;100758.44;4958755;29;20062;-81
2023/07/11 06:06:17;;;;;;;8.40;4.90;;;;;;;25.20;64.64;100775.63;4958458;28;20141;-79
2023/07/11 06:08:44;;;;;;;12.63;4.50;;;;;;;26.35;61.87;100766.38;4959080;29;20119;-78
2023/07/11 06:11:10;;;;;;;9.05;4.68;;;;;;;25.75;62.78;100756.72;4960734;28;20134;-79
2023/07/11 06:13:40;;;;;;;9.50;5.47;;;;;;;26.58;60.67;100741.84;4958914;29;20082;-79
2023/07/11 06:16:09;;;;;;;9.35;4.57;;;;;;;26.86;59.77;100745.25;4960078;28;20047;-79
2023/07/11 06:18:37;;;;;;;9.57;4.45;;;;;;;27.63;58.96;100744.47;4955442;28;20466;-78
2023/07/11 06:21:05;;;;;;;8.15;4.53;;;;;;;27.87;58.11;100742.09;4961008;28;20617;-78
2023/07/11 06:23:31;;;;;;;9.25;4.80;;;;;;;28.84;56.55;100738.22;4961513;28;20043;-79
2023/07/11 06:25:58;;;;;;;12.73;4.80;;;;;;;29.38;55.02;100730.16;4959630;29;20051;-79
2023/07/11 06:28:25;;;;;;;7.07;4.60;;;;;;;29.15;55.58;100747.00;4959718;29;20047;-79
2023/07/11 06:30:56;;;;;;;17.65;5.25;;;;;;;29.13;53.62;100727.63;4959809;28;20382;-79
2023/07/11 06:33:23;;;;;;;12.05;4.72;;;;;;;27.99;56.54;100738.03;4957172;29;20143;-78
2023/07/11 06:35:50;;;;;;;14.65;4.85;;;;;;;29.12;55.07;100728.69;4957937;29;20519;-78
2023/07/11 06:38:20;;;;;;;9.45;4.97;;;;;;;29.73;53.38;100727.56;4958712;29;20079;-79
2023/07/11 06:40:49;;;;;;;15.30;5.40;;;;;;;29.94;53.45;100729.00;4969750;23;20055;-79
2023/07/11 06:43:16;;;;;;;13.57;4.85;;;;;;;30.67;52.20;100727.00;4956344;28;20067;-81
2023/07/11 06:45:44;;;;;;;11.73;4.78;;;;;;;30.79;51.63;100725.78;4956138;28;20129;-80
2023/07/11 06:48:12;;;;;;;6.05;4.30;;;;;;;30.20;52.13;100726.94;4956390;28;20570;-78
2023/07/11 06:50:39;;;;;;;10.85;5.18;;;;;;;30.13;53.07;100719.16;4949497;29;20078;-79
2023/07/11 06:53:06;;;;;;;9.82;4.47;;;;;;;30.79;51.59;100712.25;4955531;28;20507;-79
2023/07/11 06:55:32;;;;;;;7.18;4.22;;;;;;;30.71;51.50;100704.81;4955622;28;20133;-80
2023/07/11 06:57:59;;;;;;;12.88;5.05;;;;;;;30.77;51.75;100703.63;4956898;28;20089;-80
2023/07/11 07:00:26;;;;;;;10.13;4.55;;;;;;;30.12;51.45;100695.97;4956086;28;20071;-80
2023/07/11 07:02:53;;;;;;;8.73;4.75;;;;;;;29.90;53.30;100696.38;4957449;28;20138;-78
2023/07/11 07:05:21;;;;;;;10.35;4.60;;;;;;;29.71;52.98;100687.38;4951623;28;20063;-80
2023/07/11 07:07:48;;;;;;;10.98;4.47;;;;;;;30.36;51.61;100685.19;4955987;29;20550;-79
2023/07/11 07:10:14;;;;;;;6.45;4.30;;;;;;;30.07;52.72;100689.81;4955064;29;20503;-80
2023/07/11 07:12:41;;;;;;;7.20;4.13;;;;;;;31.58;50.54;100679.03;4954035;28;20409;-80
2023/07/11 07:15:08;;;;;;;6.82;4.38;;;;;;;31.77;48.62;100668.19;4955823;28;20143;-79
2023/07/11 07:17:35;;;;;;;7.60;4.82;;;;;;;31.32;49.00;100673.19;4955583;28;20079;-80
2023/07/11 07:20:02;;;;;;;7.30;3.80;;;;;;;31.51;49.42;100672.38;4956021;28;20116;-79
2023/07/11 07:22:30;;;;;;;7.82;4.80;;;;;;;30.72;48.42;100663.22;4956410;28;20090;-79
2023/07/11 07:24:56;;;;;;;9.07;4.65;;;;;;;30.94;49.22;100661.53;4957112;29;20057;-79
2023/07/11 07:27:23;;;;;;;12.50;4.97;;;;;;;32.18;48.15;100670.97;4956664;29;20110;-80
2023/07/11 07:29:50;;;;;;;8.20;4.50;;;;;;;32.75;46.83;100665.28;4959952;29;20135;-80
2023/07/11 07:32:16;;;;;;;10.82;4.50;;;;;;;32.09;47.64;100659.25;4957416;28;20611;-81
2023/07/11 07:34:43;;;;;;;6.72;4.18;;;;;;;32.43;47.72;100669.72;4958342;29;20051;-80
2023/07/11 07:37:09;;;;;;;8.80;4.22;;;;;;;32.58;47.39;100661.31;4957467;29;20082;-81
2023/07/11 07:39:39;;;;;;;7.38;4.43;;;;;;;32.35;47.32;100662.28;4959330;29;20115;-81
2023/07/11 07:42:06;;;;;;;6.40;3.97;;;;;;;33.01;47.16;100663.66;4958306;28;20059;-80
2023/07/11 07:44:33;;;;;;;9.52;4.07;;;;;;;33.07;46.61;100651.59;4959267;29;20130;-79
2023/07/11 07:47:00;;;;;;;13.10;4.70;;;;;;;33.35;45.95;100646.91;4957709;29;20077;-80
2023/07/11 07:49:27;;;;;;;6.45;4.05;;;;;;;32.91;46.24;100647.63;4958247;29;20079;-80
2023/07/11 07:51:54;;;;;;;9.75;4.78;;;;;;;33.05;46.41;100645.69;4958011;28;20111;-80
2023/07/11 07:54:21;;;;;;;8.57;4.40;;;;;;;33.99;45.63;100638.53;4950686;29;20535;-80
2023/07/11 07:56:49;;;;;;;6.32;3.92;;;;;;;33.55;46.19;100632.06;4958718;29;20138;-81
2023/07/11 07:59:15;;;;;;;9.90;5.00;;;;;;;34.06;45.74;100638.88;4960160;28;20496;-81
2023/07/11 08:01:42;;;;;;;5.38;3.90;;;;;;;34.36;44.96;100629.13;4963441;28;20473;-81
2023/07/11 08:04:08;;;;;;;6.30;4.32;;;;;;;34.41;45.18;100632.50;4958414;29;20154;-81
2023/07/11 08:06:35;;;;;;;8.38;4.75;;;;;;;33.74;45.57;100627.19;4957831;29;20137;-80
2023/07/11 08:09:02;;;;;;;10.77;4.30;;;;;;;34.33;45.47;100632.47;4957797;28;20086;-79
2023/07/11 08:11:28;;;;;;;7.63;4.00;;;;;;;34.57;44.14;100616.53;4958013;28;20601;-82
2023/07/11 08:13:56;;;;;;;6.03;4.25;;;;;;;34.25;44.66;100625.84;4956745;29;20089;-77
2023/07/11 08:16:23;;;;;;;10.68;4.15;;;;;;;33.63;45.82;100613.09;4949417;29;20083;-81
2023/07/11 08:18:49;;;;;;;8.32;4.63;;;;;;;33.91;45.11;100602.91;4958173;29;20095;-81
2023/07/11 08:21:16;;;;;;;6.57;4.07;;;;;;;34.54;44.14;100601.66;4958985;28;20063;-81
2023/07/11 08:23:43;;;;;;;10.27;4.18;;;;;;;34.30;44.88;100601.31;4962168;29;20110;-81
2023/07/11 08:26:10;;;;;;;7.78;4.35;;;;;;;34.11;45.01;100604.25;4961607;29;20110;-81
2023/07/11 08:28:36;;;;;;;8.05;4.18;;;;;;;33.82;45.39;100601.25;4962994;29;20051;-80
2023/07/11 08:31:05;;;;;;;6.55;4.10;;;;;;;33.48;45.60;100593.72;4962729;29;20094;-81
2023/07/11 08:33:32;;;;;;;6.00;4.05;;;;;;;32.81;46.32;100588.22;4962444;28;20102;-81
2023/07/11 08:35:59;;;;;;;5.72;4.03;;;;;;;32.51;47.02;100592.38;4963763;29;20074;-81
2023/07/11 08:38:25;;;;;;;7.35;4.30;;;;;;;32.95;46.81;100589.78;4962084;28;20083;-81
2023/07/11 08:40:52;;;;;;;6.00;4.15;;;;;;;33.41;45.50;100590.63;4961238;28;20134;-81
2023/07/11 08:43:23;;;;;;;10.20;4.22;;;;;;;34.24;44.13;100580.81;4967291;28;20138;-82
2023/07/11 08:45:55;;;;;;;7.18;4.60;;;;;;;33.91;44.91;100581.19;4969279;28;20082;-80
2023/07/11 08:48:31;;;;;;;11.77;4.28;;;;;;;34.65;44.34;100576.91;4964541;28;20066;-82
2023/07/11 08:51:05;;;;;;;7.07;4.28;;;;;;;34.69;43.68;100570.53;4964318;29;20133;-80
2023/07/11 08:53:36;;;;;;;9.48;4.03;;;;;;;34.03;43.76;100563.50;4961967;29;20137;-80
2023/07/11 08:56:11;;;;;;;6.60;4.00;;;;;;;33.00;44.76;100559.06;4964548;29;20138;-81
2023/07/11 08:58:39;;;;;;;9.98;4.43;;;;;;;33.67;44.64;100569.84;4965555;29;20062;-80
2023/07/11 09:01:22;;;;;;;7.70;4.38;;;;;;;32.84;45.72;100560.50;4965631;29;20082;-78
2023/07/11 09:03:50;;;;;;;7.57;4.28;;;;;;;33.66;44.20;100562.03;4962446;29;20059;-81
2023/07/11 09:06:21;;;;;;;10.23;4.60;;;;;;;34.75;44.14;100558.38;4962254;29;20138;-81
2023/07/11 09:08:54;;;;;;;6.82;4.47;;;;;;;35.48;41.84;100542.97;4963126;29;20078;-81
2023/07/11 09:11:25;;;;;;;7.32;4.35;;;;;;;35.59;41.53;100543.41;4964438;29;20051;-78
2023/07/11 09:14:00;;;;;;;11.32;4.30;;;;;;;35.97;41.68;100554.31;4963272;29;20142;-81
2023/07/11 09:16:35;;;;;;;7.40;4.07;;;;;;;35.79;41.05;100542.72;4964453;29;20101;-81
2023/07/11 09:19:16;;;;;;;11.25;4.43;;;;;;;34.65;43.05;100530.72;4964429;28;20055;-78
2023/07/11 09:21:52;;;;;;;8.35;4.32;;;;;;;33.79;44.24;100534.84;4963793;29;20090;-80
2023/07/11 09:24:32;;;;;;;7.40;4.47;;;;;;;33.57;44.35;100535.66;4961264;28;20332;-80
2023/07/11 09:27:06;;;;;;;7.35;4.70;;;;;;;33.75;44.29;100527.59;4960513;29;20515;-79
2023/07/11 09:29:33;;;;;;;8.02;4.03;;;;;;;33.18;44.80;100533.66;4959256;29;20086;-82
2023/07/11 09:32:02;;;;;;;7.38;4.45;;;;;;;33.87;44.93;100520.50;4960511;29;20153;-80
2023/07/11 09:34:34;;;;;;;6.80;4.00;;;;;;;34.77;42.85;100517.28;4958767;28;20137;-81
2023/07/11 09:37:11;;;;;;;11.25;5.13;;;;;;;34.47;43.77;100505.47;4966106;29;20525;-79
2023/07/11 09:39:44;;;;;;;8.00;4.43;;;;;;;34.09;43.63;100513.34;4965479;28;20059;-79
2023/07/11 09:42:20;;;;;;;9.35;4.38;;;;;;;33.54;43.25;100503.75;4962912;28;20093;-80
2023/07/11 09:44:59;;;;;;;6.53;4.78;;;;;;;32.93;46.00;100516.13;4960676;28;20130;-80
2023/07/11 09:47:30;;;;;;;8.73;4.68;;;;;;;33.64;44.00;100503.44;4961989;28;20086;-80
2023/07/11 09:49:59;;;;;;;8.50;4.90;;;;;;;33.38;44.10;100490.91;4959576;28;20483;-80
2023/07/11 09:52:28;;;;;;;7.18;4.35;;;;;;;33.89;44.11;100488.41;4962732;28;20098;-80
2023/07/11 09:54:56;;;;;;;9.40;4.53;;;;;;;33.54;44.54;100494.81;4960991;28;20047;-80
2023/07/11 09:57:23;;;;;;;8.80;4.35;;;;;;;33.97;44.95;100494.19;4954772;29;20134;-81
2023/07/11 09:59:55;;;;;;;7.43;4.63;;;;;;;33.88;44.05;100494.94;4961417;29;20142;-81
2023/07/11 10:02:23;;;;;;;9.15;4.28;;;;;;;33.85;43.81;100484.72;4959699;29;20134;-79
2023/07/11 10:04:51;;;;;;;10.30;4.55;;;;;;;33.53;44.23;100476.94;4959878;29;20051;-80
2023/07/11 10:07:21;;;;;;;13.35;5.05;;;;;;;33.01;45.66;100484.75;4960258;29;20058;-79
2023/07/11 10:09:50;;;;;;;8.13;4.97;;;;;;;33.08;46.95;100490.56;4961449;28;20047;-80
2023/07/11 10:12:21;;;;;;;8.43;4.80;;;;;;;33.44;45.41;100481.50;4961657;29;20141;-80
2023/07/11 10:14:57;;;;;;;9.18;4.43;;;;;;;33.31;44.82;100472.34;4961591;29;20222;-80
2023/07/11 10:17:26;;;;;;;7.63;4.40;;;;;;;33.00;45.71;100477.75;4963562;29;20051;-80
2023/07/11 10:19:56;;;;;;;7.05;4.63;;;;;;;32.85;45.78;100467.28;4962239;28;20055;-81
2023/07/11 10:22:27;;;;;;;8.00;4.25;;;;;;;33.09;45.67;100470.44;4962816;29;20134;-78
2023/07/11 10:25:01;;;;;;;8.55;4.25;;;;;;;33.34;44.96;100471.72;4963462;29;20144;-81
2023/07/11 10:27:32;;;;;;;7.70;4.60;;;;;;;33.16;45.48;100470.00;4962313;28;20047;-80
2023/07/11 10:30:03;;;;;;;6.53;4.50;;;;;;;33.09;45.91;100470.44;4962253;29;20086;-80
2023/07/11 10:32:37;;;;;;;13.32;5.10;;;;;;;32.55;46.54;100452.53;4961350;29;20326;-80
2023/07/11 10:35:10;;;;;;;9.20;4.68;;;;;;;32.98;45.70;100463.69;4960784;29;20052;-81
2023/07/11 10:37:45;;;;;;;8.70;4.70;;;;;;;33.10;44.89;100452.25;4962817;29;20107;-82
2023/07/11 10:40:19;;;;;;;7.43;4.50;;;;;;;33.57;45.06;100461.59;4962597;28;20055;-81
2023/07/11 10:42:52;;;;;;;7.47;4.30;;;;;;;33.77;43.41;100436.63;4962131;28;20082;-79
2023/07/11 10:45:24;;;;;;;10.70;4.60;;;;;;;33.60;41.86;100431.94;4960674;28;20111;-80
2023/07/11 10:47:55;;;;;;;;;;;;;;;33.41;41.27;100417.03;4966238;29;20078;-80
2023/07/11 10:50:34;;;;;;;14.40;5.75;;;;;;;33.37;42.45;100427.72;4962761;28;19930;-78
2023/07/11 10:53:09;;;;;;;17.13;5.50;;;;;;;33.60;42.67;100423.00;4962256;29;20445;-80
2023/07/11 10:55:44;;;;;;;7.35;4.18;;;;;;;33.26;42.29;100424.44;4962033;29;20098;-79
2023/07/11 10:58:11;;;;;;;6.50;4.40;;;;;;;32.88;43.28;100423.28;4964092;29;20051;-80
2023/07/11 11:00:52;;;;;;;6.78;4.30;;;;;;;33.10;42.61;100412.41;4964035;28;20138;-79
2023/07/11 11:03:35;;;;;;;16.10;5.43;;;;;;;33.44;42.94;100419.13;4964912;29;20058;-80
2023/07/11 11:06:17;;;;;;;7.78;4.40;;;;;;;33.18;42.80;100410.84;4962814;28;20081;-81
2023/07/11 11:08:53;;;;;;;6.57;4.28;;;;;;;33.30;43.28;100411.09;4962207;29;20051;-82
2023/07/11 11:11:31;;;;;;;7.22;4.72;;;;;;;32.79;42.99;100406.19;4963432;28;20134;-80
2023/07/11 11:14:06;;;;;;;5.97;4.35;;;;;;;33.02;43.26;100396.91;4961465;28;20051;-79
2023/07/11 11:16:40;;;;;;;7.07;4.57;;;;;;;33.24;42.70;100391.41;4961562;29;20451;-80
2023/07/11 11:19:14;;;;;;;7.47;4.60;;;;;;;33.51;42.54;100392.34;4962573;29;20079;-81
2023/07/11 11:21:47;;;;;;;14.70;5.22;;;;;;;32.98;42.54;100390.50;4962887;29;20142;-81
2023/07/11 11:24:46;;;;;;;7.88;4.43;;;;;;;32.92;42.66;100373.59;4961556;29;20239;-81
2023/07/11 11:27:25;;;;;;;7.72;4.40;;;;;;;33.49;43.37;100381.00;4962558;29;20070;-80
2023/07/11 11:30:01;;;;;;;6.07;4.30;;;;;;;33.54;41.22;100356.47;4963082;29;20589;-81
2023/07/11 11:32:35;;;;;;;6.90;4.68;;;;;;;33.57;41.90;100355.78;4964309;29;20051;-79